createdAt,value
2022-08-25T00:01:58.420Z,22.19
2022-08-25T00:04:26.843Z,22.21
2022-08-25T00:06:54.239Z,22.18
2022-08-25T00:09:24.946Z,22.16
2022-08-25T00:11:51.874Z,22.15
2022-08-25T00:14:25.751Z,22.10
2022-08-25T00:16:52.818Z,22.08
2022-08-25T00:19:27.246Z,22.04
2022-08-25T00:21:55.828Z,22.06
2022-08-25T00:24:23.357Z,22.07
2022-08-25T00:26:53.773Z,22.08
2022-08-25T00:29:23.546Z,22.10
2022-08-25T00:31:50.397Z,22.09
2022-08-25T00:34:21.427Z,22.09
2022-08-25T00:36:48.967Z,22.08
2022-08-25T00:39:15.792Z,22.09
2022-08-25T00:41:43.776Z,22.07
2022-08-25T00:44:12.953Z,22.08
2022-08-25T00:46:49.370Z,22.02
2022-08-25T00:49:37.302Z,21.98
2022-08-25T00:52:16.882Z,21.94
2022-08-25T00:55:29.880Z,21.90
2022-08-25T00:58:11.654Z,21.89
2022-08-25T01:00:43.869Z,21.88
2022-08-25T01:03:11.308Z,21.89
2022-08-25T01:05:40.070Z,21.91
2022-08-25T01:08:08.611Z,21.93
2022-08-25T01:10:39.592Z,21.97
2022-08-25T01:13:16.593Z,22.02
2022-08-25T01:15:45.245Z,22.03
2022-08-25T01:18:12.408Z,22.05
2022-08-25T01:20:40.042Z,22.10
2022-08-25T01:23:06.929Z,22.12
2022-08-25T01:26:10.779Z,22.12
2022-08-25T01:28:38.242Z,22.12
2022-08-25T01:31:05.307Z,22.13
2022-08-25T01:33:51.318Z,22.12
2022-08-25T01:36:19.909Z,22.10
2022-08-25T01:38:46.740Z,22.09
2022-08-25T01:41:17.869Z,22.09
2022-08-25T01:43:44.755Z,22.09
2022-08-25T01:46:11.671Z,22.13
2022-08-25T01:48:39.173Z,22.14
2022-08-25T01:51:06.463Z,22.14
2022-08-25T01:53:33.811Z,22.14
2022-08-25T01:56:09.791Z,22.13
2022-08-25T01:58:40.245Z,22.23
2022-08-25T02:01:10.155Z,22.25
2022-08-25T02:03:42.033Z,22.20
2022-08-25T02:06:15.404Z,22.35
2022-08-25T02:08:43.129Z,22.35
2022-08-25T02:11:14.845Z,22.40
2022-08-25T02:13:42.857Z,22.36
2022-08-25T02:16:15.441Z,22.32
2022-08-25T02:18:42.244Z,22.35
2022-08-25T02:21:09.243Z,22.34
2022-08-25T02:23:36.067Z,22.30
2022-08-25T02:26:05.078Z,22.28
2022-08-25T02:28:31.981Z,22.23
2022-08-25T02:31:01.654Z,22.24
2022-08-25T02:33:28.808Z,22.24
2022-08-25T02:36:00.760Z,22.19
2022-08-25T02:38:29.166Z,22.18
2022-08-25T02:40:56.963Z,22.12
2022-08-25T02:43:24.111Z,22.07
2022-08-25T02:45:50.881Z,22.03
2022-08-25T02:48:17.677Z,22.05
2022-08-25T02:50:48.909Z,22.07
2022-08-25T02:53:15.698Z,22.11
2022-08-25T02:55:42.493Z,22.11
2022-08-25T02:58:09.416Z,22.07
2022-08-25T03:00:36.791Z,22.04
2022-08-25T03:03:04.904Z,22.02
2022-08-25T03:05:32.347Z,22.00
2022-08-25T03:07:59.972Z,22.03
2022-08-25T03:10:27.047Z,22.01
2022-08-25T03:12:53.872Z,21.99
2022-08-25T03:15:20.780Z,21.97
2022-08-25T03:17:48.617Z,21.99
2022-08-25T03:20:18.220Z,21.99
2022-08-25T03:22:45.034Z,22.01
2022-08-25T03:25:11.860Z,22.00
2022-08-25T03:27:38.836Z,22.01
2022-08-25T03:30:07.036Z,22.02
2022-08-25T03:32:33.886Z,22.08
2022-08-25T03:35:00.811Z,22.14
2022-08-25T03:37:27.996Z,22.19
2022-08-25T03:39:54.889Z,22.35
2022-08-25T03:42:21.707Z,22.56
2022-08-25T03:44:48.564Z,22.64
2022-08-25T03:47:15.573Z,22.62
2022-08-25T03:49:42.455Z,22.57
2022-08-25T03:52:09.303Z,22.56
2022-08-25T03:54:36.293Z,22.60
2022-08-25T03:57:03.320Z,22.74
2022-08-25T03:59:30.108Z,22.73
2022-08-25T04:01:56.978Z,22.71
2022-08-25T04:04:24.703Z,22.70
2022-08-25T04:06:51.472Z,22.70
2022-08-25T04:09:18.320Z,22.66
2022-08-25T04:11:45.280Z,22.65
2022-08-25T04:14:15.738Z,22.65
2022-08-25T04:16:44.247Z,22.66
2022-08-25T04:19:11.960Z,22.67
2022-08-25T04:21:40.158Z,22.67
2022-08-25T04:24:09.072Z,22.69
2022-08-25T04:26:40.864Z,22.69
2022-08-25T04:29:08.958Z,22.73
2022-08-25T04:31:39.136Z,22.77
2022-08-25T04:34:28.439Z,22.80
2022-08-25T04:36:53.932Z,22.83
2022-08-25T04:39:21.644Z,22.86
2022-08-25T04:41:49.271Z,22.91
2022-08-25T04:44:16.479Z,23.04
2022-08-25T04:46:43.968Z,23.08
2022-08-25T04:49:10.879Z,23.13
2022-08-25T04:51:40.027Z,23.21
2022-08-25T04:54:12.551Z,23.38
2022-08-25T04:56:43.814Z,23.56
2022-08-25T04:59:13.165Z,23.79
2022-08-25T05:01:41.277Z,23.99
2022-08-25T05:04:15.734Z,24.22
2022-08-25T05:06:55.750Z,24.52
2022-08-25T05:09:22.586Z,24.74
2022-08-25T05:11:49.409Z,24.89
2022-08-25T05:14:16.294Z,24.99
2022-08-25T05:16:43.088Z,25.06
2022-08-25T05:19:10.301Z,25.18
2022-08-25T05:21:37.477Z,25.33
2022-08-25T05:24:05.454Z,25.47
2022-08-25T05:26:33.919Z,25.45
2022-08-25T05:29:04.040Z,25.55
2022-08-25T05:31:31.885Z,25.61
2022-08-25T05:33:59.096Z,25.72
2022-08-25T05:36:27.666Z,25.69
2022-08-25T05:38:54.529Z,25.65
2022-08-25T05:41:25.681Z,25.61
2022-08-25T05:43:52.647Z,25.57
2022-08-25T05:46:20.681Z,25.59
2022-08-25T05:48:48.827Z,25.65
2022-08-25T05:51:16.360Z,25.79
2022-08-25T05:53:45.883Z,25.76
2022-08-25T05:56:13.425Z,25.85
2022-08-25T05:58:42.030Z,26.00
2022-08-25T06:01:09.972Z,26.15
2022-08-25T06:03:36.890Z,26.26
2022-08-25T06:06:07.957Z,26.28
2022-08-25T06:08:34.802Z,26.29
2022-08-25T06:11:02.629Z,26.44
2022-08-25T06:13:29.622Z,26.56
2022-08-25T06:16:00.826Z,26.75
2022-08-25T06:18:28.142Z,26.94
2022-08-25T06:20:55.115Z,26.97
2022-08-25T06:23:21.940Z,26.99
2022-08-25T06:25:53.458Z,27.16
2022-08-25T06:28:20.915Z,27.28
2022-08-25T06:30:48.314Z,27.33
2022-08-25T06:33:15.441Z,27.44
2022-08-25T06:35:44.025Z,27.58
2022-08-25T06:38:11.475Z,27.80
2022-08-25T06:40:38.611Z,28.00
2022-08-25T06:43:05.559Z,28.10
2022-08-25T06:45:32.636Z,28.15
2022-08-25T06:47:59.591Z,28.21
2022-08-25T06:50:26.676Z,28.23
2022-08-25T06:52:53.601Z,28.35
2022-08-25T06:55:20.392Z,28.35
2022-08-25T06:57:47.464Z,28.38
2022-08-25T07:00:14.804Z,28.54
2022-08-25T07:02:41.760Z,28.64
2022-08-25T07:05:13.199Z,28.76
2022-08-25T07:07:43.656Z,28.84
2022-08-25T07:10:11.812Z,28.94
2022-08-25T07:12:39.147Z,29.04
2022-08-25T07:15:21.722Z,29.14
2022-08-25T07:17:49.474Z,29.25
2022-08-25T07:20:19.253Z,29.36
2022-08-25T07:22:47.075Z,29.60
2022-08-25T07:25:14.225Z,29.79
2022-08-25T07:27:44.509Z,29.95
2022-08-25T07:30:11.414Z,30.08
2022-08-25T07:35:18.907Z,30.24
2022-08-25T07:37:52.278Z,30.37
2022-08-25T07:40:29.152Z,30.53
2022-08-25T07:42:58.408Z,30.68
2022-08-25T07:45:30.237Z,30.78
2022-08-25T07:48:02.772Z,30.90
2022-08-25T07:50:30.950Z,31.00
2022-08-25T07:52:58.533Z,31.04
2022-08-25T07:55:27.056Z,31.14
2022-08-25T07:57:57.100Z,31.22
2022-08-25T08:00:25.047Z,31.35
2022-08-25T08:02:51.970Z,31.49
2022-08-25T08:05:20.604Z,31.54
2022-08-25T08:07:50.822Z,31.53
2022-08-25T08:10:53.872Z,31.49
2022-08-25T08:13:07.448Z,31.43
2022-08-25T08:15:35.231Z,31.40
2022-08-25T08:18:03.197Z,31.34
2022-08-25T08:20:30.784Z,31.20
2022-08-25T08:23:08.170Z,31.04
2022-08-25T08:25:35.205Z,30.98
2022-08-25T08:28:02.195Z,30.93
2022-08-25T08:30:29.067Z,30.89
2022-08-25T08:33:12.424Z,31.01
2022-08-25T08:35:43.141Z,31.10
2022-08-25T08:38:16.191Z,31.22
2022-08-25T08:41:03.865Z,31.13
2022-08-25T08:43:33.326Z,31.06
2022-08-25T08:46:00.447Z,31.00
2022-08-25T08:48:36.456Z,30.87
2022-08-25T08:51:14.787Z,30.72
2022-08-25T08:53:54.650Z,30.48
2022-08-25T08:56:47.941Z,30.50
2022-08-25T08:59:30.168Z,30.65
2022-08-25T09:02:03.235Z,30.79
2022-08-25T09:04:38.067Z,30.90
2022-08-25T09:07:11.384Z,30.97
2022-08-25T09:09:42.314Z,31.11
2022-08-25T09:12:34.361Z,31.22
2022-08-25T09:15:12.581Z,31.34
2022-08-25T09:18:05.973Z,31.24
2022-08-25T09:21:09.192Z,31.05
2022-08-25T09:23:51.298Z,31.01
2022-08-25T09:26:40.158Z,31.10
2022-08-25T09:29:19.764Z,31.21
2022-08-25T09:31:48.875Z,31.25
2022-08-25T09:34:22.142Z,31.40
2022-08-25T09:36:49.855Z,31.28
2022-08-25T09:39:17.017Z,31.05
2022-08-25T09:41:45.868Z,30.91
2022-08-25T09:44:18.735Z,30.93
2022-08-25T09:47:05.462Z,31.03
2022-08-25T09:49:40.281Z,31.17
2022-08-25T09:52:28.780Z,31.44
2022-08-25T09:54:57.812Z,31.59
2022-08-25T09:57:49.557Z,31.73
2022-08-25T10:00:22.138Z,31.80
2022-08-25T10:03:09.874Z,31.97
2022-08-25T10:05:59.339Z,32.17
2022-08-25T10:08:32.135Z,32.20
2022-08-25T10:11:01.869Z,32.07
2022-08-25T10:13:49.329Z,31.88
2022-08-25T10:16:32.125Z,31.51
2022-08-25T10:19:00.961Z,31.30
2022-08-25T10:21:27.836Z,31.31
2022-08-25T10:23:55.391Z,31.15
2022-08-25T10:26:41.951Z,30.88
2022-08-25T10:29:41.685Z,30.86
2022-08-25T10:32:59.534Z,30.84
2022-08-25T10:35:32.973Z,30.93
2022-08-25T10:38:21.542Z,30.82
2022-08-25T10:40:51.650Z,30.77
2022-08-25T10:43:34.054Z,30.70
2022-08-25T10:46:26.415Z,30.57
2022-08-25T10:49:04.222Z,30.59
2022-08-25T10:51:56.817Z,30.71
2022-08-25T10:54:29.825Z,30.90
2022-08-25T10:57:18.915Z,31.06
2022-08-25T11:00:06.144Z,31.24
2022-08-25T11:02:52.145Z,31.12
2022-08-25T11:05:28.003Z,31.17
2022-08-25T11:08:08.071Z,31.30
2022-08-25T11:10:42.200Z,31.38
2022-08-25T11:13:46.555Z,31.42
2022-08-25T11:16:18.950Z,31.25
2022-08-25T11:18:54.339Z,31.27
2022-08-25T11:21:39.857Z,31.39
2022-08-25T11:24:22.079Z,31.58
2022-08-25T11:26:55.463Z,31.77
2022-08-25T11:29:27.576Z,31.85
2022-08-25T11:31:59.753Z,31.89
2022-08-25T11:34:32.336Z,31.97
2022-08-25T11:37:11.311Z,32.09
2022-08-25T11:39:47.528Z,32.29
2022-08-25T11:42:32.964Z,32.28
2022-08-25T11:45:34.467Z,31.90
2022-08-25T11:48:18.165Z,31.80
2022-08-25T11:51:02.898Z,31.86
2022-08-25T11:53:42.837Z,31.63
2022-08-25T11:56:34.777Z,31.54
2022-08-25T11:59:02.171Z,31.59
2022-08-25T12:01:41.323Z,31.53
2022-08-25T12:04:32.958Z,31.45
2022-08-25T12:07:05.765Z,31.19
2022-08-25T12:09:54.325Z,31.10
2022-08-25T12:12:31.574Z,31.17
2022-08-25T12:15:53.858Z,31.12
2022-08-25T12:18:20.820Z,31.25
2022-08-25T12:20:53.687Z,31.31
2022-08-25T12:23:44.904Z,31.41
2022-08-25T12:26:46.122Z,31.03
2022-08-25T12:29:40.293Z,30.85
2022-08-25T12:32:33.157Z,30.86
2022-08-25T12:35:21.972Z,30.96
2022-08-25T12:38:03.852Z,30.74
2022-08-25T12:40:59.070Z,30.53
2022-08-25T12:43:37.536Z,30.62
2022-08-25T12:46:23.057Z,30.68
2022-08-25T12:48:55.856Z,30.56
2022-08-25T12:51:25.983Z,30.59
2022-08-25T12:54:15.881Z,30.39
2022-08-25T12:56:50.548Z,30.18
2022-08-25T12:59:33.099Z,30.07
2022-08-25T13:02:18.399Z,30.31
2022-08-25T13:04:58.590Z,30.17
2022-08-25T13:07:54.079Z,30.17
2022-08-25T13:10:42.982Z,30.36
2022-08-25T13:13:46.863Z,30.35
2022-08-25T13:16:20.027Z,30.42
2022-08-25T13:18:51.635Z,30.34
2022-08-25T13:21:38.155Z,30.31
2022-08-25T13:24:16.678Z,30.18
2022-08-25T13:26:48.975Z,30.19
2022-08-25T13:29:37.338Z,30.26
2022-08-25T13:32:13.007Z,30.48
2022-08-25T13:34:43.390Z,30.41
2022-08-25T13:37:16.326Z,30.26
2022-08-25T13:39:56.709Z,29.94
2022-08-25T13:42:28.793Z,29.97
2022-08-25T13:45:01.588Z,29.92
2022-08-25T13:47:45.297Z,29.59
2022-08-25T13:50:27.904Z,29.48
2022-08-25T13:53:01.537Z,29.46
2022-08-25T13:55:38.177Z,29.50
2022-08-25T13:58:32.326Z,29.73
2022-08-25T14:01:22.889Z,29.85
2022-08-25T14:04:33.468Z,29.88
2022-08-25T14:07:25.658Z,29.70
2022-08-25T14:09:55.517Z,29.59
2022-08-25T14:12:37.322Z,29.50
2022-08-25T14:15:07.420Z,29.59
2022-08-25T14:17:39.868Z,29.33
2022-08-25T14:20:18.520Z,29.17
2022-08-25T14:22:45.521Z,29.15
2022-08-25T14:25:12.610Z,29.30
2022-08-25T14:28:03.552Z,29.20
2022-08-25T14:30:32.344Z,29.25
2022-08-25T14:33:02.111Z,29.41
2022-08-25T14:35:29.176Z,29.19
2022-08-25T14:37:58.989Z,29.05
2022-08-25T14:40:27.358Z,28.90
2022-08-25T14:42:55.724Z,28.90
2022-08-25T14:45:22.798Z,29.00
2022-08-25T14:47:50.193Z,28.99
2022-08-25T14:50:20.153Z,28.89
2022-08-25T14:52:51.814Z,28.85
2022-08-25T14:55:21.136Z,28.84
2022-08-25T14:57:59.826Z,28.86
2022-08-25T15:00:27.013Z,28.95
2022-08-25T15:02:55.265Z,29.17
2022-08-25T15:05:25.918Z,29.14
2022-08-25T15:07:54.858Z,29.10
2022-08-25T15:10:21.962Z,29.01
2022-08-25T15:12:51.187Z,28.98
2022-08-25T15:15:21.255Z,29.04
2022-08-25T15:17:49.312Z,28.93
2022-08-25T15:20:17.177Z,28.87
2022-08-25T15:22:44.008Z,28.82
2022-08-25T15:25:10.878Z,28.86
2022-08-25T15:27:37.842Z,28.90
2022-08-25T15:30:05.481Z,28.92
2022-08-25T15:32:32.391Z,29.08
2022-08-25T15:34:59.193Z,28.99
2022-08-25T15:37:26.090Z,28.94
2022-08-25T15:39:52.994Z,28.78
2022-08-25T15:42:20.120Z,28.77
2022-08-25T15:44:53.257Z,28.65
2022-08-25T15:47:22.181Z,28.43
2022-08-25T15:49:49.216Z,28.29
2022-08-25T15:52:17.096Z,28.21
2022-08-25T15:54:45.995Z,28.09
2022-08-25T15:57:24.156Z,28.07
2022-08-25T15:59:52.144Z,28.00
2022-08-25T16:02:20.973Z,27.94
2022-08-25T16:04:48.630Z,27.89
2022-08-25T16:07:15.489Z,27.84
2022-08-25T16:09:42.403Z,27.80
2022-08-25T16:12:11.240Z,27.78
2022-08-25T16:14:39.918Z,27.74
2022-08-25T16:17:08.356Z,27.69
2022-08-25T16:19:38.137Z,27.68
2022-08-25T16:22:06.668Z,27.64
2022-08-25T16:24:38.593Z,27.61
2022-08-25T16:27:11.211Z,27.52
2022-08-25T16:29:40.938Z,27.52
2022-08-25T16:32:09.534Z,27.47
2022-08-25T16:34:36.632Z,27.34
2022-08-25T16:37:04.566Z,27.41
2022-08-25T16:39:33.301Z,27.27
2022-08-25T16:42:00.293Z,27.34
2022-08-25T16:44:28.539Z,27.29
2022-08-25T16:46:56.019Z,27.26
2022-08-25T16:49:24.348Z,27.22
2022-08-25T16:51:57.581Z,27.17
2022-08-25T16:54:28.328Z,27.12
2022-08-25T16:56:55.521Z,27.07
2022-08-25T16:59:23.506Z,27.04
2022-08-25T17:01:52.382Z,26.97
2022-08-25T17:04:20.106Z,26.96
2022-08-25T17:06:51.755Z,26.89
2022-08-25T17:09:23.850Z,26.85
2022-08-25T17:11:52.423Z,26.80
2022-08-25T17:14:21.612Z,26.74
2022-08-25T17:16:48.482Z,26.68
2022-08-25T17:19:18.528Z,26.65
2022-08-25T17:21:45.797Z,26.60
2022-08-25T17:24:13.863Z,26.56
2022-08-25T17:26:42.399Z,26.53
2022-08-25T17:29:09.868Z,26.49
2022-08-25T17:31:37.295Z,26.45
2022-08-25T17:34:04.241Z,26.43
2022-08-25T17:36:31.122Z,26.39
2022-08-25T17:38:57.963Z,26.35
2022-08-25T17:41:25.464Z,26.32
2022-08-25T17:43:52.351Z,26.31
2022-08-25T17:46:20.682Z,26.26
2022-08-25T17:48:47.828Z,26.27
2022-08-25T17:51:15.942Z,26.24
2022-08-25T17:53:43.251Z,26.21
2022-08-25T17:56:14.323Z,26.18
2022-08-25T17:58:42.181Z,26.14
2022-08-25T18:01:22.233Z,26.10
2022-08-25T18:03:49.394Z,26.05
2022-08-25T18:06:17.005Z,25.97
2022-08-25T18:08:45.345Z,25.94
2022-08-25T18:11:20.452Z,25.86
2022-08-25T18:13:47.748Z,25.81
2022-08-25T18:16:17.429Z,25.77
2022-08-25T18:18:44.909Z,25.68
2022-08-25T18:21:14.615Z,25.63
2022-08-25T18:23:42.419Z,25.57
2022-08-25T18:26:10.590Z,25.50
2022-08-25T18:28:40.571Z,25.45
2022-08-25T18:31:11.438Z,25.37
2022-08-25T18:33:38.749Z,25.30
2022-08-25T18:36:09.756Z,25.25
2022-08-25T18:38:37.448Z,25.33
2022-08-25T18:41:07.612Z,25.30
2022-08-25T18:43:35.267Z,25.28
2022-08-25T18:46:03.906Z,25.21
2022-08-25T18:48:32.554Z,25.18
2022-08-25T18:51:01.183Z,25.13
2022-08-25T18:53:37.522Z,25.10
2022-08-25T18:56:17.967Z,25.05
2022-08-25T18:58:45.283Z,25.00
2022-08-25T19:01:16.884Z,24.89
2022-08-25T19:03:45.999Z,24.79
2022-08-25T19:06:13.047Z,24.74
2022-08-25T19:08:39.969Z,24.61
2022-08-25T19:11:09.898Z,24.52
2022-08-25T19:13:38.198Z,24.48
2022-08-25T19:16:29.923Z,24.43
2022-08-25T19:18:57.255Z,24.41
2022-08-25T19:21:25.354Z,24.38
2022-08-25T19:23:52.553Z,24.35
2022-08-25T19:26:19.713Z,24.41
2022-08-25T19:28:49.043Z,24.36
2022-08-25T19:31:18.301Z,24.31
2022-08-25T19:33:46.870Z,24.32
2022-08-25T19:36:15.515Z,24.28
2022-08-25T19:38:43.256Z,24.23
2022-08-25T19:41:14.581Z,24.16
2022-08-25T19:43:56.609Z,24.12
2022-08-25T19:46:35.307Z,24.04
2022-08-25T19:49:11.833Z,23.93
2022-08-25T19:51:41.101Z,23.83
2022-08-25T19:54:13.743Z,23.77
2022-08-25T19:56:54.018Z,23.72
2022-08-25T19:59:40.698Z,23.67
2022-08-25T20:02:15.214Z,23.64
2022-08-25T20:04:49.320Z,23.62
2022-08-25T20:07:21.048Z,23.60
2022-08-25T20:09:48.053Z,23.58
2022-08-25T20:14:48.258Z,23.55
2022-08-25T20:17:23.943Z,23.54
2022-08-25T20:19:55.477Z,23.52
2022-08-25T20:22:26.441Z,23.52
2022-08-25T20:24:56.076Z,23.51
2022-08-25T20:27:34.712Z,23.50
2022-08-25T20:30:03.227Z,23.47
2022-08-25T20:32:31.803Z,23.43
2022-08-25T20:34:58.679Z,23.39
2022-08-25T20:37:25.809Z,23.35
2022-08-25T20:39:53.037Z,23.33
2022-08-25T20:42:20.314Z,23.33
2022-08-25T20:44:47.243Z,23.34
2022-08-25T20:47:14.698Z,23.37
2022-08-25T20:49:42.562Z,23.34
2022-08-25T20:52:10.501Z,23.33
2022-08-25T20:54:37.773Z,23.29
2022-08-25T20:57:04.933Z,23.26
2022-08-25T20:59:35.064Z,23.13
2022-08-25T21:02:02.378Z,23.22
2022-08-25T21:04:31.065Z,23.23
2022-08-25T21:06:58.787Z,23.23
2022-08-25T21:09:27.422Z,23.23
2022-08-25T21:11:55.965Z,23.21
2022-08-25T21:14:25.074Z,23.20
2022-08-25T21:16:54.548Z,23.18
2022-08-25T21:19:26.825Z,23.17
2022-08-25T21:21:59.809Z,23.16
2022-08-25T21:24:28.546Z,23.16
2022-08-25T21:26:57.668Z,23.14
2022-08-25T21:29:28.437Z,23.12
2022-08-25T21:31:58.610Z,23.08
2022-08-25T21:34:26.114Z,23.06
2022-08-25T21:36:56.704Z,23.05
2022-08-25T21:39:25.072Z,23.02
2022-08-25T21:41:52.832Z,23.00
2022-08-25T21:44:20.469Z,23.00
2022-08-25T21:46:54.336Z,22.99
2022-08-25T21:49:23.054Z,22.97
2022-08-25T21:51:59.258Z,22.97
2022-08-25T21:54:27.220Z,22.98
2022-08-25T21:57:02.038Z,23.01
2022-08-25T21:59:38.583Z,23.03
2022-08-25T22:02:08.996Z,23.09
2022-08-25T22:04:36.576Z,23.11
2022-08-25T22:07:03.575Z,23.04
2022-08-25T22:09:30.760Z,23.07
2022-08-25T22:11:58.694Z,23.04
2022-08-25T22:14:27.469Z,23.01
2022-08-25T22:16:55.464Z,22.99
2022-08-25T22:19:23.146Z,22.93
2022-08-25T22:21:51.160Z,22.91
2022-08-25T22:24:18.778Z,22.86
2022-08-25T22:26:47.776Z,22.85
2022-08-25T22:29:24.810Z,22.79
2022-08-25T22:31:53.808Z,22.74
2022-08-25T22:34:30.530Z,22.73
2022-08-25T22:37:00.704Z,22.71
2022-08-25T22:39:27.948Z,22.67
2022-08-25T22:41:55.466Z,22.63
2022-08-25T22:44:23.391Z,22.57
2022-08-25T22:46:50.335Z,22.51
2022-08-25T22:49:18.143Z,22.43
2022-08-25T22:51:46.997Z,22.40
2022-08-25T22:54:14.842Z,22.37
2022-08-25T22:56:42.509Z,22.33
2022-08-25T22:59:12.001Z,22.32
2022-08-25T23:01:40.014Z,22.29
2022-08-25T23:04:08.246Z,22.27
2022-08-25T23:06:35.754Z,22.26
2022-08-25T23:09:05.290Z,22.24
2022-08-25T23:11:32.182Z,22.20
2022-08-25T23:14:00.163Z,22.19
2022-08-25T23:16:27.158Z,22.18
2022-08-25T23:18:54.746Z,22.17
2022-08-25T23:21:24.297Z,22.05
2022-08-25T23:23:51.322Z,22.16
2022-08-25T23:26:19.305Z,22.18
2022-08-25T23:28:47.650Z,22.18
2022-08-25T23:31:16.651Z,22.15
2022-08-25T23:33:44.328Z,21.96
2022-08-25T23:36:15.249Z,22.03
2022-08-25T23:38:46.474Z,21.98
2022-08-25T23:41:22.934Z,21.93
2022-08-25T23:43:50.771Z,21.89
2022-08-25T23:46:20.610Z,21.88
2022-08-25T23:48:48.946Z,21.87
2022-08-25T23:51:28.757Z,21.87
2022-08-25T23:53:57.163Z,21.88
2022-08-25T23:56:26.269Z,21.91
2022-08-25T23:58:55.640Z,21.92
